createdAt,value
2017-10-03T00:00:40.134Z,99.90
2017-10-03T00:03:08.423Z,99.90
2017-10-03T00:05:36.684Z,99.90
2017-10-03T00:08:04.972Z,99.90
2017-10-03T00:10:33.246Z,99.90
2017-10-03T00:13:01.532Z,99.90
2017-10-03T00:15:29.795Z,99.90
2017-10-03T00:17:58.080Z,99.90
2017-10-03T00:20:26.342Z,99.90
2017-10-03T00:22:54.733Z,99.90
2017-10-03T00:25:22.997Z,99.90
2017-10-03T00:27:51.261Z,99.90
2017-10-03T00:30:19.538Z,99.90
2017-10-03T00:32:47.834Z,99.90
2017-10-03T00:35:16.112Z,99.90
2017-10-03T00:37:44.397Z,99.90
2017-10-03T00:40:12.673Z,99.90
2017-10-03T00:42:40.950Z,99.90
2017-10-03T00:45:09.223Z,99.90
2017-10-03T00:47:37.504Z,99.90
2017-10-03T00:50:05.877Z,99.90
2017-10-03T00:52:34.157Z,99.90
2017-10-03T00:55:02.443Z,99.90
2017-10-03T00:57:30.702Z,99.90
2017-10-03T00:59:59.806Z,99.90
2017-10-03T01:02:28.079Z,99.90
2017-10-03T01:04:56.361Z,99.90
2017-10-03T01:07:24.625Z,99.90
2017-10-03T01:09:52.901Z,99.90
2017-10-03T01:12:21.176Z,99.90
2017-10-03T01:14:49.554Z,99.90
2017-10-03T01:17:17.820Z,99.90
2017-10-03T01:19:46.125Z,99.90
2017-10-03T01:22:14.389Z,99.90
2017-10-03T01:24:42.643Z,99.90
2017-10-03T01:27:10.924Z,99.90
2017-10-03T01:29:39.199Z,99.90
2017-10-03T01:32:07.496Z,99.90
2017-10-03T01:34:35.748Z,99.90
2017-10-03T01:37:04.054Z,99.90
2017-10-03T01:39:32.506Z,99.90
2017-10-03T01:42:00.814Z,99.90
2017-10-03T01:44:29.069Z,99.90
2017-10-03T01:46:57.346Z,99.90
2017-10-03T01:49:25.648Z,99.90
2017-10-03T01:51:53.953Z,99.90
2017-10-03T01:54:22.992Z,99.90
2017-10-03T01:56:51.269Z,99.90
2017-10-03T01:59:19.587Z,99.90
2017-10-03T02:01:47.884Z,99.90
2017-10-03T02:04:16.940Z,99.90
2017-10-03T02:06:45.220Z,99.90
2017-10-03T02:09:13.501Z,99.90
2017-10-03T02:11:41.796Z,99.90
2017-10-03T02:14:10.939Z,99.90
2017-10-03T02:16:39.216Z,99.90
2017-10-03T02:19:07.524Z,99.90
2017-10-03T02:21:35.793Z,99.90
2017-10-03T02:24:04.280Z,99.90
2017-10-03T02:26:32.558Z,99.90
2017-10-03T02:29:00.829Z,99.90
2017-10-03T02:31:29.090Z,99.90
2017-10-03T02:33:57.387Z,99.90
2017-10-03T02:36:25.667Z,99.90
2017-10-03T02:38:53.941Z,99.90
2017-10-03T02:41:22.203Z,99.90
2017-10-03T02:43:50.480Z,99.90
2017-10-03T02:46:18.771Z,99.90
2017-10-03T02:48:47.151Z,99.90
2017-10-03T02:51:15.418Z,99.90
2017-10-03T02:53:43.815Z,99.90
2017-10-03T02:56:12.099Z,99.90
2017-10-03T02:58:40.385Z,99.90
2017-10-03T03:01:08.664Z,99.90
2017-10-03T03:03:36.934Z,99.90
2017-10-03T03:06:05.209Z,99.90
2017-10-03T03:08:33.516Z,99.90
2017-10-03T03:11:02.579Z,99.90
2017-10-03T03:13:30.853Z,99.90
2017-10-03T03:16:00.661Z,99.90
2017-10-03T03:18:28.928Z,99.90
2017-10-03T03:20:57.314Z,99.90
2017-10-03T03:23:25.591Z,99.90
2017-10-03T03:25:53.873Z,99.90
2017-10-03T03:28:22.255Z,99.90
2017-10-03T03:30:50.554Z,99.90
2017-10-03T03:33:19.637Z,99.90
2017-10-03T03:35:47.925Z,99.90
2017-10-03T03:38:16.968Z,99.90
2017-10-03T03:40:45.380Z,99.90
2017-10-03T03:43:13.629Z,99.90
2017-10-03T03:45:41.941Z,99.90
2017-10-03T03:48:10.206Z,99.90
2017-10-03T03:50:38.508Z,99.90
2017-10-03T03:53:07.581Z,99.90
2017-10-03T03:55:35.867Z,99.90
2017-10-03T03:58:04.920Z,99.90
2017-10-03T04:00:33.184Z,99.90
2017-10-03T04:03:01.501Z,99.90
2017-10-03T04:05:29.782Z,99.90
2017-10-03T04:07:58.098Z,99.90
2017-10-03T04:10:27.153Z,99.90
2017-10-03T04:12:55.554Z,99.90
2017-10-03T04:15:23.809Z,99.90
2017-10-03T04:17:52.865Z,99.90
2017-10-03T04:20:21.140Z,99.90
2017-10-03T04:22:49.422Z,99.90
2017-10-03T04:25:18.449Z,99.90
2017-10-03T04:27:47.609Z,99.90
2017-10-03T04:30:15.902Z,99.90
2017-10-03T04:32:44.177Z,99.90
2017-10-03T04:35:12.463Z,99.90
2017-10-03T04:37:41.532Z,99.90
2017-10-03T04:40:09.808Z,99.90
2017-10-03T04:42:38.077Z,99.90
2017-10-03T04:45:06.386Z,99.90
2017-10-03T04:47:34.665Z,99.90
2017-10-03T04:50:03.037Z,99.90
2017-10-03T04:52:31.404Z,99.90
2017-10-03T04:54:59.777Z,99.90
2017-10-03T04:57:28.113Z,99.90
2017-10-03T04:59:56.394Z,99.90
2017-10-03T05:02:24.713Z,99.90
2017-10-03T05:04:53.772Z,99.90
2017-10-03T05:07:22.045Z,99.90
2017-10-03T05:09:50.353Z,99.90
2017-10-03T05:12:18.911Z,99.90
2017-10-03T05:14:47.207Z,99.90
2017-10-03T05:17:15.465Z,99.90
2017-10-03T05:19:43.776Z,99.90
2017-10-03T05:22:12.056Z,99.90
2017-10-03T05:24:40.332Z,99.90
2017-10-03T05:27:08.609Z,99.90
2017-10-03T05:29:36.884Z,99.90
2017-10-03T05:32:05.957Z,99.90
2017-10-03T05:34:34.230Z,99.90
2017-10-03T05:37:02.526Z,99.90
2017-10-03T05:39:30.808Z,99.90
2017-10-03T05:41:59.100Z,99.90
2017-10-03T05:44:27.365Z,99.90
2017-10-03T05:46:55.731Z,99.90
2017-10-03T05:49:24.005Z,99.90
2017-10-03T05:51:52.305Z,99.90
2017-10-03T05:54:20.769Z,99.90
2017-10-03T05:56:49.148Z,99.90
2017-10-03T05:59:17.525Z,99.90
2017-10-03T06:01:45.798Z,99.90
2017-10-03T06:04:14.193Z,99.90
2017-10-03T06:06:42.454Z,99.90
2017-10-03T06:09:11.617Z,99.90
2017-10-03T06:11:39.905Z,99.90
2017-10-03T06:14:08.202Z,99.90
2017-10-03T06:16:37.362Z,99.90
2017-10-03T06:19:05.720Z,99.90
2017-10-03T06:21:34.018Z,99.90
2017-10-03T06:24:02.304Z,99.90
2017-10-03T06:26:30.593Z,99.90
2017-10-03T06:28:58.861Z,99.90
2017-10-03T06:31:27.142Z,99.90
2017-10-03T06:33:55.403Z,99.90
2017-10-03T06:36:23.685Z,99.90
2017-10-03T06:38:51.945Z,99.90
2017-10-03T06:41:20.337Z,99.90
2017-10-03T06:43:48.633Z,99.90
2017-10-03T06:46:17.031Z,99.90
2017-10-03T06:48:45.293Z,99.90
2017-10-03T06:51:13.555Z,99.90
2017-10-03T06:53:41.832Z,99.90
2017-10-03T06:56:10.101Z,99.90
2017-10-03T06:58:38.381Z,99.90
2017-10-03T07:01:06.654Z,99.90
2017-10-03T07:03:34.966Z,99.90
2017-10-03T07:06:03.233Z,99.90
2017-10-03T07:08:31.519Z,99.90
2017-10-03T07:10:59.779Z,99.90
2017-10-03T07:13:28.090Z,99.90
2017-10-03T07:15:56.358Z,99.90
2017-10-03T07:18:24.625Z,99.90
2017-10-03T07:20:52.913Z,99.90
2017-10-03T07:23:21.181Z,99.90
2017-10-03T07:25:49.491Z,99.90
2017-10-03T07:28:18.538Z,99.90
2017-10-03T07:30:47.589Z,99.90
2017-10-03T07:33:15.961Z,99.90
2017-10-03T07:35:44.292Z,99.90
2017-10-03T07:38:13.358Z,99.90
2017-10-03T07:40:41.657Z,99.90
2017-10-03T07:43:09.927Z,99.90
2017-10-03T07:45:38.218Z,99.90
2017-10-03T07:48:06.484Z,99.90
2017-10-03T07:50:35.093Z,99.90
2017-10-03T07:53:03.365Z,99.90
2017-10-03T07:55:31.625Z,99.90
2017-10-03T07:58:00.014Z,99.90
2017-10-03T08:00:28.297Z,99.90
2017-10-03T08:02:56.685Z,99.90
2017-10-03T08:05:24.957Z,99.90
2017-10-03T08:07:53.245Z,99.90
2017-10-03T08:10:21.519Z,99.90
2017-10-03T08:12:49.795Z,99.90
2017-10-03T08:15:18.066Z,99.90
2017-10-03T08:17:46.454Z,99.90
2017-10-03T08:20:14.716Z,99.90
2017-10-03T08:22:43.002Z,99.90
2017-10-03T08:25:11.281Z,99.90
2017-10-03T08:27:39.617Z,99.90
2017-10-03T08:30:08.661Z,99.90
2017-10-03T08:32:36.942Z,99.90
2017-10-03T08:35:05.253Z,99.90
2017-10-03T08:37:33.519Z,99.90
2017-10-03T08:40:02.919Z,99.90
2017-10-03T08:42:31.278Z,99.90
2017-10-03T08:44:59.566Z,99.90
2017-10-03T08:47:27.854Z,99.90
2017-10-03T08:49:56.150Z,99.90
2017-10-03T08:52:25.198Z,99.90
2017-10-03T08:54:53.476Z,99.90
2017-10-03T08:57:21.853Z,99.90
2017-10-03T08:59:50.133Z,99.90
2017-10-03T09:02:18.405Z,99.90
2017-10-03T09:04:46.689Z,99.90
2017-10-03T09:07:14.962Z,99.90
2017-10-03T09:09:43.352Z,99.90
2017-10-03T09:12:11.613Z,99.90
2017-10-03T09:14:39.901Z,99.90
2017-10-03T09:17:08.936Z,99.90
2017-10-03T09:19:37.335Z,99.90
2017-10-03T09:22:05.607Z,99.90
2017-10-03T09:24:33.869Z,99.90
2017-10-03T09:27:02.157Z,99.90
2017-10-03T09:29:30.441Z,99.90
2017-10-03T09:31:58.729Z,99.90
2017-10-03T09:34:27.764Z,99.90
2017-10-03T09:36:56.061Z,99.90
2017-10-03T09:39:24.350Z,99.90
2017-10-03T09:41:52.630Z,99.90
2017-10-03T09:44:20.893Z,99.90
2017-10-03T09:46:49.170Z,99.90
2017-10-03T09:49:17.442Z,99.90
2017-10-03T09:51:46.505Z,99.90
2017-10-03T09:54:14.769Z,99.90
2017-10-03T09:56:43.070Z,99.90
2017-10-03T09:59:11.340Z,99.90
2017-10-03T10:01:39.616Z,99.90
2017-10-03T10:04:07.885Z,99.90
2017-10-03T10:06:36.170Z,99.90
2017-10-03T10:09:04.428Z,99.90
2017-10-03T10:11:32.714Z,99.90
2017-10-03T10:14:01.021Z,99.90
2017-10-03T10:16:29.313Z,99.90
2017-10-03T10:18:57.590Z,99.90
2017-10-03T10:21:25.876Z,99.90
2017-10-03T10:23:54.936Z,99.90
2017-10-03T10:26:23.229Z,99.90
2017-10-03T10:28:51.525Z,99.90
2017-10-03T10:31:19.782Z,99.90
2017-10-03T10:33:48.074Z,99.90
2017-10-03T10:36:16.329Z,99.90
2017-10-03T10:38:45.503Z,99.90
2017-10-03T10:41:13.774Z,99.90
2017-10-03T10:43:42.154Z,99.90
2017-10-03T10:46:10.537Z,99.90
2017-10-03T10:48:38.823Z,99.90
2017-10-03T10:51:07.180Z,99.90
2017-10-03T10:53:35.473Z,99.90
2017-10-03T10:56:03.748Z,99.90
2017-10-03T10:58:32.028Z,99.90
2017-10-03T11:01:00.309Z,99.90
2017-10-03T11:03:28.581Z,99.90
2017-10-03T11:05:56.880Z,99.90
2017-10-03T11:08:25.950Z,99.90
2017-10-03T11:10:54.243Z,99.90
2017-10-03T11:13:22.520Z,99.90
2017-10-03T11:15:50.853Z,99.90
2017-10-03T11:18:19.880Z,99.90
2017-10-03T11:20:48.957Z,99.90
2017-10-03T11:23:30.086Z,99.90
2017-10-03T11:25:58.370Z,99.90
2017-10-03T11:28:26.637Z,99.90
2017-10-03T11:30:54.993Z,99.90
2017-10-03T11:33:23.253Z,99.90
2017-10-03T11:35:51.649Z,99.90
2017-10-03T11:38:19.920Z,99.90
2017-10-03T11:40:48.209Z,99.90
2017-10-03T11:43:16.476Z,99.90
2017-10-03T11:45:44.766Z,99.90
2017-10-03T11:48:13.024Z,99.90
2017-10-03T11:50:41.320Z,99.90
2017-10-03T11:53:09.621Z,99.90
2017-10-03T11:55:37.898Z,99.90
2017-10-03T11:58:06.171Z,99.90
2017-10-03T12:00:34.460Z,99.90
2017-10-03T12:03:02.745Z,99.90
2017-10-03T12:05:31.017Z,99.90
2017-10-03T12:07:59.377Z,99.90
2017-10-03T12:10:27.649Z,99.90
2017-10-03T12:12:55.938Z,99.90
2017-10-03T12:15:25.017Z,99.90
2017-10-03T12:17:54.092Z,99.90
2017-10-03T12:20:22.402Z,99.90
2017-10-03T12:22:51.577Z,99.90
2017-10-03T12:25:19.835Z,99.90
2017-10-03T12:27:48.124Z,99.90
2017-10-03T12:30:17.186Z,99.90
2017-10-03T12:32:45.480Z,99.90
2017-10-03T12:35:13.765Z,99.90
2017-10-03T12:37:42.057Z,99.90
2017-10-03T12:40:10.339Z,99.90
2017-10-03T12:42:38.623Z,99.90
2017-10-03T12:45:06.907Z,99.90
2017-10-03T12:47:35.199Z,99.90
2017-10-03T12:50:03.480Z,99.90
2017-10-03T12:52:31.759Z,99.90
2017-10-03T12:55:00.021Z,99.90
2017-10-03T12:57:28.418Z,99.90
2017-10-03T12:59:56.746Z,99.90
2017-10-03T13:02:25.081Z,99.90
2017-10-03T13:04:53.370Z,99.90
2017-10-03T13:07:22.401Z,99.90
2017-10-03T13:09:50.699Z,99.90
2017-10-03T13:12:18.976Z,99.90
2017-10-03T13:14:47.370Z,99.90
2017-10-03T13:17:15.624Z,99.90
2017-10-03T13:19:43.909Z,99.90
2017-10-03T13:22:12.182Z,99.90
2017-10-03T13:24:40.464Z,99.90
2017-10-03T13:27:08.742Z,99.90
2017-10-03T13:29:37.045Z,99.90
2017-10-03T13:32:05.310Z,99.90
2017-10-03T13:34:33.704Z,99.90
2017-10-03T13:37:01.987Z,99.90
2017-10-03T13:39:31.034Z,99.90
2017-10-03T13:41:59.293Z,99.90
2017-10-03T13:44:27.625Z,99.90
2017-10-03T13:46:55.893Z,99.90
2017-10-03T13:49:24.153Z,99.90
2017-10-03T13:51:52.449Z,99.90
2017-10-03T13:54:20.777Z,99.90
2017-10-03T13:56:49.060Z,99.90
2017-10-03T14:01:51.936Z,99.90
2017-10-03T14:04:20.970Z,99.90
2017-10-03T14:06:49.275Z,99.90
2017-10-03T14:09:17.540Z,99.90
2017-10-03T14:11:45.845Z,99.20
2017-10-03T14:14:14.210Z,98.60
2017-10-03T14:16:42.501Z,98.00
2017-10-03T14:19:10.761Z,96.00
2017-10-03T14:21:39.038Z,98.50
2017-10-03T14:24:07.315Z,99.90
2017-10-03T14:26:35.589Z,99.90
2017-10-03T14:29:03.868Z,99.90
2017-10-03T14:31:32.929Z,99.90
2017-10-03T14:34:01.248Z,99.90
2017-10-03T14:36:29.533Z,99.90
2017-10-03T14:38:57.825Z,99.90
2017-10-03T14:41:26.853Z,99.90
2017-10-03T14:43:55.175Z,99.90
2017-10-03T14:46:23.466Z,99.90
2017-10-03T14:48:51.749Z,99.90
2017-10-03T14:51:20.010Z,99.90
2017-10-03T14:53:48.329Z,99.90
2017-10-03T14:56:17.482Z,99.90
2017-10-03T14:58:46.735Z,99.90
2017-10-03T15:01:14.988Z,99.90
2017-10-03T15:03:43.301Z,99.90
2017-10-03T15:06:11.565Z,99.90
2017-10-03T15:08:39.859Z,99.90
2017-10-03T15:11:08.128Z,99.90
2017-10-03T15:13:36.404Z,99.90
2017-10-03T15:16:04.672Z,99.90
2017-10-03T15:18:33.061Z,98.50
2017-10-03T15:21:01.352Z,95.80
2017-10-03T15:23:29.613Z,94.20
2017-10-03T15:25:57.996Z,90.50
2017-10-03T15:28:26.261Z,87.00
2017-10-03T15:30:54.576Z,88.80
2017-10-03T15:33:23.614Z,87.10
2017-10-03T15:35:51.906Z,87.10
2017-10-03T15:38:20.209Z,90.10
2017-10-03T15:40:48.514Z,93.00
2017-10-03T15:43:17.541Z,99.90
2017-10-03T15:45:45.835Z,99.90
2017-10-03T15:48:14.133Z,99.90
2017-10-03T15:50:42.413Z,99.90
2017-10-03T15:53:10.681Z,99.90
2017-10-03T15:55:39.733Z,99.90
2017-10-03T15:58:07.989Z,99.90
2017-10-03T16:00:36.273Z,99.90
2017-10-03T16:03:04.545Z,99.90
2017-10-03T16:05:32.849Z,99.90
2017-10-03T16:08:01.153Z,99.90
2017-10-03T16:10:29.423Z,99.90
2017-10-03T16:12:57.736Z,99.90
2017-10-03T16:15:25.996Z,99.90
2017-10-03T16:17:54.268Z,99.90
2017-10-03T16:20:22.546Z,99.90
2017-10-03T16:22:50.938Z,99.90
2017-10-03T16:25:19.295Z,99.90
2017-10-03T16:27:47.685Z,99.90
2017-10-03T16:30:15.983Z,99.90
2017-10-03T16:32:44.272Z,99.90
2017-10-03T16:35:13.349Z,99.90
2017-10-03T16:37:41.718Z,99.90
2017-10-03T16:40:10.000Z,99.90
2017-10-03T16:42:38.272Z,99.90
2017-10-03T16:45:06.548Z,99.90
2017-10-03T16:47:34.825Z,99.90
2017-10-03T16:50:03.089Z,99.90
2017-10-03T16:52:31.469Z,99.90
2017-10-03T16:54:59.739Z,99.90
2017-10-03T16:57:28.131Z,99.90
2017-10-03T16:59:56.396Z,99.90
2017-10-03T17:02:25.896Z,99.90
2017-10-03T17:04:54.177Z,99.90
2017-10-03T17:07:22.439Z,99.90
2017-10-03T17:09:50.713Z,99.90
2017-10-03T17:12:18.994Z,99.90
2017-10-03T17:14:47.403Z,99.90
2017-10-03T17:17:15.803Z,99.90
2017-10-03T17:19:44.090Z,99.90
2017-10-03T17:22:12.464Z,99.90
2017-10-03T17:24:41.574Z,99.90
2017-10-03T17:27:09.844Z,99.90
2017-10-03T17:29:38.156Z,99.90
2017-10-03T17:32:06.428Z,99.90
2017-10-03T17:34:34.765Z,99.90
2017-10-03T17:37:03.148Z,99.90
2017-10-03T17:39:32.321Z,99.90
2017-10-03T17:42:00.910Z,99.90
2017-10-03T17:44:32.551Z,99.90
2017-10-03T17:47:00.841Z,99.90
2017-10-03T17:49:29.171Z,99.90
2017-10-03T17:51:57.547Z,99.90
2017-10-03T17:54:25.809Z,99.90
2017-10-03T17:56:54.122Z,99.90
2017-10-03T17:59:23.166Z,99.90
2017-10-03T18:01:51.445Z,99.90
2017-10-03T18:04:19.712Z,99.90
2017-10-03T18:06:48.010Z,99.90
2017-10-03T18:09:16.280Z,99.90
2017-10-03T18:11:44.587Z,99.90
2017-10-03T18:14:12.835Z,99.90
2017-10-03T18:16:41.152Z,99.90
2017-10-03T18:19:10.180Z,99.90
2017-10-03T18:21:38.484Z,99.90
2017-10-03T18:24:06.769Z,99.90
2017-10-03T18:26:35.034Z,99.90
2017-10-03T18:29:03.326Z,99.90
2017-10-03T18:31:31.586Z,99.90
2017-10-03T18:33:59.886Z,99.90
2017-10-03T18:36:28.694Z,99.90
2017-10-03T18:38:56.970Z,99.90
2017-10-03T18:41:25.257Z,99.90
2017-10-03T18:43:53.641Z,99.90
2017-10-03T18:46:21.908Z,99.90
2017-10-03T18:48:50.299Z,99.90
2017-10-03T18:51:18.579Z,99.90
2017-10-03T18:53:47.658Z,99.90
2017-10-03T18:56:15.937Z,99.90
2017-10-03T18:58:44.259Z,99.90
2017-10-03T19:01:12.630Z,99.90
2017-10-03T19:03:40.926Z,99.90
2017-10-03T19:06:09.203Z,99.90
2017-10-03T19:08:37.476Z,99.90
2017-10-03T19:11:05.848Z,99.90
2017-10-03T19:13:34.218Z,99.90
2017-10-03T19:16:02.511Z,99.90
2017-10-03T19:18:30.767Z,99.90
2017-10-03T19:20:59.065Z,99.90
2017-10-03T19:23:27.349Z,99.90
2017-10-03T19:25:55.629Z,99.90
2017-10-03T19:28:23.987Z,99.90
2017-10-03T19:30:52.379Z,99.90
2017-10-03T19:33:21.414Z,99.90
2017-10-03T19:35:49.702Z,99.90
2017-10-03T19:38:18.117Z,99.90
2017-10-03T19:40:46.393Z,99.90
2017-10-03T19:43:15.469Z,99.90
2017-10-03T19:45:43.737Z,99.90
2017-10-03T19:48:12.046Z,99.90
2017-10-03T19:50:41.077Z,99.90
2017-10-03T19:53:09.381Z,99.90
2017-10-03T19:55:37.650Z,99.90
2017-10-03T19:58:05.943Z,99.90
2017-10-03T20:00:34.971Z,99.90
2017-10-03T20:03:03.263Z,99.90
2017-10-03T20:05:31.651Z,99.90
2017-10-03T20:07:59.956Z,99.90
2017-10-03T20:10:29.128Z,99.90
2017-10-03T20:12:57.417Z,99.90
2017-10-03T20:15:26.484Z,99.90
2017-10-03T20:17:54.863Z,99.90
2017-10-03T20:20:23.254Z,99.90
2017-10-03T20:22:51.515Z,99.90
2017-10-03T20:25:19.802Z,99.90
2017-10-03T20:27:48.077Z,99.90
2017-10-03T20:30:16.355Z,99.90
2017-10-03T20:32:44.617Z,99.90
2017-10-03T20:35:12.913Z,99.90
2017-10-03T20:37:41.193Z,99.90
2017-10-03T20:40:09.595Z,99.90
2017-10-03T20:42:37.947Z,99.90
2017-10-03T20:45:06.230Z,99.90
2017-10-03T20:47:34.514Z,99.90
2017-10-03T20:50:03.569Z,99.90
2017-10-03T20:52:31.896Z,99.90
2017-10-03T20:55:00.192Z,99.90
2017-10-03T20:57:29.221Z,99.90
2017-10-03T20:59:57.746Z,99.90
2017-10-03T21:02:26.156Z,99.90
2017-10-03T21:04:55.683Z,99.90
2017-10-03T21:07:24.150Z,99.90
2017-10-03T21:09:52.933Z,99.90
2017-10-03T21:12:22.712Z,99.90
2017-10-03T21:14:51.085Z,99.90
2017-10-03T21:17:21.625Z,99.90
2017-10-03T21:19:50.819Z,99.90
2017-10-03T21:22:19.201Z,99.90
2017-10-03T21:24:47.649Z,99.90
2017-10-03T21:27:16.037Z,99.90
2017-10-03T21:29:44.504Z,99.90
2017-10-03T21:32:12.882Z,99.90
2017-10-03T21:34:41.260Z,99.90
2017-10-03T21:37:09.655Z,99.90
2017-10-03T21:39:37.938Z,99.90
2017-10-03T21:42:18.179Z,99.90
2017-10-03T21:44:46.457Z,99.90
2017-10-03T21:47:14.745Z,99.90
2017-10-03T21:49:43.024Z,99.90
2017-10-03T21:52:11.304Z,99.90
2017-10-03T21:54:39.574Z,99.90
2017-10-03T21:57:07.884Z,99.90
2017-10-03T21:59:36.938Z,99.90
2017-10-03T22:02:05.224Z,99.90
2017-10-03T22:04:33.611Z,99.90
2017-10-03T22:07:01.864Z,99.90
2017-10-03T22:09:30.157Z,99.90
2017-10-03T22:11:58.446Z,99.90
2017-10-03T22:14:26.735Z,99.90
2017-10-03T22:16:55.001Z,99.90
2017-10-03T22:19:23.292Z,99.90
2017-10-03T22:21:51.554Z,99.90
2017-10-03T22:24:19.838Z,99.90
2017-10-03T22:26:48.112Z,99.90
2017-10-03T22:29:16.380Z,99.90
2017-10-03T22:31:44.649Z,99.90
2017-10-03T22:34:12.918Z,99.90
2017-10-03T22:36:41.326Z,99.90
2017-10-03T22:39:09.598Z,99.90
2017-10-03T22:41:38.246Z,99.90
2017-10-03T22:44:07.284Z,99.90
2017-10-03T22:46:35.566Z,99.90
2017-10-03T22:49:03.853Z,99.90
2017-10-03T22:51:37.807Z,99.90
2017-10-03T22:54:06.129Z,99.90
2017-10-03T22:56:34.389Z,99.90
2017-10-03T22:59:02.659Z,99.90
2017-10-03T23:01:30.957Z,99.90
2017-10-03T23:03:59.235Z,99.90
2017-10-03T23:06:27.878Z,99.90
2017-10-03T23:08:56.202Z,99.90
2017-10-03T23:11:24.685Z,99.90
2017-10-03T23:13:52.937Z,99.90
2017-10-03T23:16:21.241Z,99.90
2017-10-03T23:18:49.552Z,99.90
2017-10-03T23:21:18.585Z,99.90
2017-10-03T23:23:46.844Z,99.90
2017-10-03T23:26:15.919Z,99.90
2017-10-03T23:28:44.194Z,99.90
2017-10-03T23:31:12.562Z,99.90
2017-10-03T23:33:40.828Z,99.90
2017-10-03T23:36:09.119Z,99.90
2017-10-03T23:38:37.380Z,99.90
2017-10-03T23:41:05.777Z,99.90
2017-10-03T23:43:34.045Z,99.90
2017-10-03T23:46:02.357Z,99.90
2017-10-03T23:48:30.616Z,99.90
2017-10-03T23:51:00.422Z,99.90
2017-10-03T23:53:28.801Z,99.90
2017-10-03T23:55:57.086Z,99.90
2017-10-03T23:58:25.362Z,99.90
